sensor_id;sensor_type;location;lat;lon;timestamp;P1;durP1;ratioP1;P2;durP2;ratioP2
5333;SDS011;2689;50.954;7.116;2022-12-07T00:02:13;26.47;;;19.00;;
5333;SDS011;2689;50.954;7.116;2022-12-07T00:04:45;26.80;;;19.40;;
5333;SDS011;2689;50.954;7.116;2022-12-07T00:07:13;37.87;;;21.00;;
5333;SDS011;2689;50.954;7.116;2022-12-07T00:09:44;26.13;;;18.17;;
5333;SDS011;2689;50.954;7.116;2022-12-07T00:12:11;27.23;;;20.00;;
5333;SDS011;2689;50.954;7.116;2022-12-07T00:14:38;27.50;;;18.47;;
5333;SDS011;2689;50.954;7.116;2022-12-07T00:17:13;28.50;;;19.37;;
5333;SDS011;2689;50.954;7.116;2022-12-07T00:19:42;26.60;;;20.40;;
5333;SDS011;2689;50.954;7.116;2022-12-07T00:22:10;26.83;;;19.80;;
5333;SDS011;2689;50.954;7.116;2022-12-07T00:24:38;30.47;;;20.10;;
5333;SDS011;2689;50.954;7.116;2022-12-07T00:27:05;26.97;;;18.80;;
5333;SDS011;2689;50.954;7.116;2022-12-07T00:29:32;28.20;;;20.03;;
5333;SDS011;2689;50.954;7.116;2022-12-07T00:31:59;34.40;;;20.47;;
5333;SDS011;2689;50.954;7.116;2022-12-07T00:34:29;21.17;;;16.50;;
5333;SDS011;2689;50.954;7.116;2022-12-07T00:36:56;26.17;;;18.60;;
5333;SDS011;2689;50.954;7.116;2022-12-07T00:39:23;28.40;;;20.07;;
5333;SDS011;2689;50.954;7.116;2022-12-07T00:41:51;26.60;;;18.93;;
5333;SDS011;2689;50.954;7.116;2022-12-07T00:44:21;28.90;;;20.10;;
5333;SDS011;2689;50.954;7.116;2022-12-07T00:46:48;29.70;;;19.87;;
5333;SDS011;2689;50.954;7.116;2022-12-07T00:49:15;35.63;;;18.50;;
5333;SDS011;2689;50.954;7.116;2022-12-07T00:51:44;31.87;;;19.27;;
5333;SDS011;2689;50.954;7.116;2022-12-07T00:54:16;31.57;;;19.70;;
5333;SDS011;2689;50.954;7.116;2022-12-07T00:56:43;27.77;;;20.17;;
5333;SDS011;2689;50.954;7.116;2022-12-07T00:59:16;29.00;;;20.37;;
5333;SDS011;2689;50.954;7.116;2022-12-07T01:01:57;28.00;;;19.20;;
5333;SDS011;2689;50.954;7.116;2022-12-07T01:04:24;25.80;;;18.53;;
5333;SDS011;2689;50.954;7.116;2022-12-07T01:06:53;31.60;;;19.67;;
5333;SDS011;2689;50.954;7.116;2022-12-07T01:09:20;29.10;;;18.63;;
5333;SDS011;2689;50.954;7.116;2022-12-07T01:11:48;27.03;;;19.43;;
5333;SDS011;2689;50.954;7.116;2022-12-07T01:14:16;30.80;;;19.43;;
5333;SDS011;2689;50.954;7.116;2022-12-07T01:16:46;28.63;;;19.30;;
5333;SDS011;2689;50.954;7.116;2022-12-07T01:19:13;32.03;;;19.47;;
5333;SDS011;2689;50.954;7.116;2022-12-07T01:21:46;24.27;;;17.70;;
5333;SDS011;2689;50.954;7.116;2022-12-07T01:24:27;32.60;;;18.83;;
5333;SDS011;2689;50.954;7.116;2022-12-07T01:26:56;23.07;;;15.80;;
5333;SDS011;2689;50.954;7.116;2022-12-07T01:29:50;23.33;;;17.27;;
5333;SDS011;2689;50.954;7.116;2022-12-07T01:32:19;22.40;;;16.70;;
5333;SDS011;2689;50.954;7.116;2022-12-07T01:34:48;26.40;;;17.80;;
5333;SDS011;2689;50.954;7.116;2022-12-07T01:37:26;22.80;;;18.10;;
5333;SDS011;2689;50.954;7.116;2022-12-07T01:39:53;28.33;;;17.87;;
5333;SDS011;2689;50.954;7.116;2022-12-07T01:42:47;26.10;;;17.03;;
5333;SDS011;2689;50.954;7.116;2022-12-07T01:48:28;27.70;;;19.90;;
5333;SDS011;2689;50.954;7.116;2022-12-07T01:51:10;24.83;;;19.77;;
5333;SDS011;2689;50.954;7.116;2022-12-07T01:53:53;25.17;;;18.07;;
5333;SDS011;2689;50.954;7.116;2022-12-07T01:56:26;25.80;;;18.77;;
5333;SDS011;2689;50.954;7.116;2022-12-07T01:58:55;21.80;;;15.67;;
5333;SDS011;2689;50.954;7.116;2022-12-07T02:01:29;34.30;;;19.13;;
5333;SDS011;2689;50.954;7.116;2022-12-07T02:04:08;25.60;;;20.50;;
5333;SDS011;2689;50.954;7.116;2022-12-07T02:06:39;22.00;;;16.13;;
5333;SDS011;2689;50.954;7.116;2022-12-07T02:09:18;22.20;;;15.77;;
5333;SDS011;2689;50.954;7.116;2022-12-07T02:11:45;32.90;;;20.90;;
5333;SDS011;2689;50.954;7.116;2022-12-07T02:14:26;26.70;;;19.60;;
5333;SDS011;2689;50.954;7.116;2022-12-07T02:17:10;27.60;;;19.23;;
5333;SDS011;2689;50.954;7.116;2022-12-07T02:22:54;27.40;;;19.83;;
5333;SDS011;2689;50.954;7.116;2022-12-07T02:25:57;29.30;;;21.57;;
5333;SDS011;2689;50.954;7.116;2022-12-07T02:28:34;28.67;;;21.17;;
5333;SDS011;2689;50.954;7.116;2022-12-07T02:31:29;29.13;;;21.37;;
5333;SDS011;2689;50.954;7.116;2022-12-07T02:34:01;30.20;;;19.93;;
5333;SDS011;2689;50.954;7.116;2022-12-07T02:36:38;29.50;;;19.70;;
5333;SDS011;2689;50.954;7.116;2022-12-07T02:39:27;35.57;;;22.10;;
5333;SDS011;2689;50.954;7.116;2022-12-07T02:42:13;30.10;;;21.00;;
5333;SDS011;2689;50.954;7.116;2022-12-07T02:45:01;32.07;;;20.30;;
5333;SDS011;2689;50.954;7.116;2022-12-07T02:47:37;26.93;;;18.27;;
5333;SDS011;2689;50.954;7.116;2022-12-07T02:50:08;34.00;;;22.73;;
5333;SDS011;2689;50.954;7.116;2022-12-07T02:52:48;29.07;;;22.20;;
5333;SDS011;2689;50.954;7.116;2022-12-07T02:55:15;31.47;;;20.63;;
5333;SDS011;2689;50.954;7.116;2022-12-07T02:57:49;33.60;;;23.33;;
5333;SDS011;2689;50.954;7.116;2022-12-07T03:00:27;28.90;;;20.90;;
5333;SDS011;2689;50.954;7.116;2022-12-07T03:03:00;30.47;;;21.47;;
5333;SDS011;2689;50.954;7.116;2022-12-07T03:05:36;30.47;;;21.07;;
5333;SDS011;2689;50.954;7.116;2022-12-07T03:08:21;32.07;;;19.53;;
5333;SDS011;2689;50.954;7.116;2022-12-07T03:10:57;28.80;;;19.10;;
5333;SDS011;2689;50.954;7.116;2022-12-07T03:13:28;34.03;;;21.20;;
5333;SDS011;2689;50.954;7.116;2022-12-07T03:16:02;27.77;;;20.87;;
5333;SDS011;2689;50.954;7.116;2022-12-07T03:18:43;28.47;;;21.10;;
5333;SDS011;2689;50.954;7.116;2022-12-07T03:21:20;26.30;;;21.30;;
5333;SDS011;2689;50.954;7.116;2022-12-07T03:23:50;25.47;;;18.40;;
5333;SDS011;2689;50.954;7.116;2022-12-07T03:26:20;28.20;;;19.67;;
5333;SDS011;2689;50.954;7.116;2022-12-07T03:28:52;24.47;;;17.20;;
5333;SDS011;2689;50.954;7.116;2022-12-07T03:31:25;31.03;;;21.90;;
5333;SDS011;2689;50.954;7.116;2022-12-07T03:33:59;31.27;;;23.20;;
5333;SDS011;2689;50.954;7.116;2022-12-07T03:36:32;29.83;;;20.43;;
5333;SDS011;2689;50.954;7.116;2022-12-07T03:39:07;34.40;;;23.27;;
5333;SDS011;2689;50.954;7.116;2022-12-07T03:41:43;45.33;;;20.37;;
5333;SDS011;2689;50.954;7.116;2022-12-07T03:44:10;31.63;;;23.50;;
5333;SDS011;2689;50.954;7.116;2022-12-07T03:46:40;28.33;;;20.37;;
5333;SDS011;2689;50.954;7.116;2022-12-07T03:49:13;30.87;;;19.93;;
5333;SDS011;2689;50.954;7.116;2022-12-07T03:51:50;34.37;;;21.17;;
5333;SDS011;2689;50.954;7.116;2022-12-07T03:54:22;29.27;;;19.60;;
5333;SDS011;2689;50.954;7.116;2022-12-07T03:56:53;27.13;;;15.40;;
5333;SDS011;2689;50.954;7.116;2022-12-07T03:59:21;35.40;;;23.07;;
5333;SDS011;2689;50.954;7.116;2022-12-07T04:01:53;33.20;;;21.63;;
5333;SDS011;2689;50.954;7.116;2022-12-07T04:04:29;34.83;;;23.20;;
5333;SDS011;2689;50.954;7.116;2022-12-07T04:07:02;30.40;;;21.97;;
5333;SDS011;2689;50.954;7.116;2022-12-07T04:09:36;30.90;;;22.27;;
5333;SDS011;2689;50.954;7.116;2022-12-07T04:12:15;36.60;;;23.63;;
5333;SDS011;2689;50.954;7.116;2022-12-07T04:14:46;29.23;;;20.93;;
5333;SDS011;2689;50.954;7.116;2022-12-07T04:17:16;33.57;;;23.33;;
5333;SDS011;2689;50.954;7.116;2022-12-07T04:19:46;36.80;;;24.70;;
5333;SDS011;2689;50.954;7.116;2022-12-07T04:22:14;35.30;;;24.30;;
5333;SDS011;2689;50.954;7.116;2022-12-07T04:24:48;31.80;;;21.47;;
5333;SDS011;2689;50.954;7.116;2022-12-07T04:27:19;33.30;;;23.93;;
5333;SDS011;2689;50.954;7.116;2022-12-07T04:29:46;31.90;;;23.13;;
5333;SDS011;2689;50.954;7.116;2022-12-07T04:32:19;33.60;;;24.17;;
5333;SDS011;2689;50.954;7.116;2022-12-07T04:34:58;31.97;;;21.90;;
5333;SDS011;2689;50.954;7.116;2022-12-07T04:37:29;34.60;;;24.30;;
5333;SDS011;2689;50.954;7.116;2022-12-07T04:39:58;36.00;;;22.80;;
5333;SDS011;2689;50.954;7.116;2022-12-07T04:42:25;35.27;;;24.87;;
5333;SDS011;2689;50.954;7.116;2022-12-07T04:44:59;33.80;;;23.20;;
5333;SDS011;2689;50.954;7.116;2022-12-07T04:47:31;32.83;;;22.37;;
5333;SDS011;2689;50.954;7.116;2022-12-07T04:49:59;32.67;;;22.90;;
5333;SDS011;2689;50.954;7.116;2022-12-07T04:52:33;29.50;;;20.83;;
5333;SDS011;2689;50.954;7.116;2022-12-07T04:55:02;36.63;;;24.53;;
5333;SDS011;2689;50.954;7.116;2022-12-07T04:57:38;34.87;;;23.57;;
5333;SDS011;2689;50.954;7.116;2022-12-07T05:00:08;34.03;;;24.07;;
5333;SDS011;2689;50.954;7.116;2022-12-07T05:02:36;32.50;;;23.77;;
5333;SDS011;2689;50.954;7.116;2022-12-07T05:05:04;37.00;;;23.77;;
5333;SDS011;2689;50.954;7.116;2022-12-07T05:07:32;31.47;;;23.07;;
5333;SDS011;2689;50.954;7.116;2022-12-07T05:09:59;36.07;;;24.50;;
5333;SDS011;2689;50.954;7.116;2022-12-07T05:12:30;34.37;;;23.00;;
5333;SDS011;2689;50.954;7.116;2022-12-07T05:14:57;33.57;;;23.93;;
5333;SDS011;2689;50.954;7.116;2022-12-07T05:17:24;35.33;;;24.67;;
5333;SDS011;2689;50.954;7.116;2022-12-07T05:19:52;34.10;;;23.00;;
5333;SDS011;2689;50.954;7.116;2022-12-07T05:22:21;35.20;;;24.63;;
5333;SDS011;2689;50.954;7.116;2022-12-07T05:24:50;32.43;;;21.50;;
5333;SDS011;2689;50.954;7.116;2022-12-07T05:27:17;35.17;;;23.53;;
5333;SDS011;2689;50.954;7.116;2022-12-07T05:29:44;35.80;;;24.37;;
5333;SDS011;2689;50.954;7.116;2022-12-07T05:32:10;33.60;;;23.73;;
5333;SDS011;2689;50.954;7.116;2022-12-07T05:34:38;39.03;;;23.90;;
5333;SDS011;2689;50.954;7.116;2022-12-07T05:37:05;34.90;;;24.43;;
5333;SDS011;2689;50.954;7.116;2022-12-07T05:39:38;35.37;;;25.03;;
5333;SDS011;2689;50.954;7.116;2022-12-07T05:42:08;29.30;;;21.53;;
5333;SDS011;2689;50.954;7.116;2022-12-07T05:44:39;29.90;;;19.37;;
5333;SDS011;2689;50.954;7.116;2022-12-07T05:47:09;30.33;;;23.20;;
5333;SDS011;2689;50.954;7.116;2022-12-07T05:49:38;30.10;;;20.67;;
5333;SDS011;2689;50.954;7.116;2022-12-07T05:52:05;32.57;;;19.30;;
5333;SDS011;2689;50.954;7.116;2022-12-07T05:54:32;31.50;;;22.37;;
5333;SDS011;2689;50.954;7.116;2022-12-07T05:57:00;33.57;;;22.27;;
5333;SDS011;2689;50.954;7.116;2022-12-07T05:59:27;31.60;;;22.00;;
5333;SDS011;2689;50.954;7.116;2022-12-07T06:01:54;33.30;;;23.50;;
5333;SDS011;2689;50.954;7.116;2022-12-07T06:04:23;31.47;;;20.30;;
5333;SDS011;2689;50.954;7.116;2022-12-07T06:06:50;31.27;;;23.50;;
5333;SDS011;2689;50.954;7.116;2022-12-07T06:09:18;33.20;;;23.70;;
5333;SDS011;2689;50.954;7.116;2022-12-07T06:11:46;30.00;;;18.83;;
5333;SDS011;2689;50.954;7.116;2022-12-07T06:14:32;30.63;;;20.83;;
5333;SDS011;2689;50.954;7.116;2022-12-07T06:16:59;31.70;;;20.27;;
5333;SDS011;2689;50.954;7.116;2022-12-07T06:19:26;32.43;;;20.60;;
5333;SDS011;2689;50.954;7.116;2022-12-07T06:21:53;42.10;;;21.43;;
5333;SDS011;2689;50.954;7.116;2022-12-07T06:24:20;32.50;;;21.53;;
5333;SDS011;2689;50.954;7.116;2022-12-07T06:26:48;34.13;;;21.27;;
5333;SDS011;2689;50.954;7.116;2022-12-07T06:29:15;30.90;;;21.90;;
5333;SDS011;2689;50.954;7.116;2022-12-07T06:31:43;28.13;;;19.83;;
5333;SDS011;2689;50.954;7.116;2022-12-07T06:34:11;29.53;;;20.77;;
5333;SDS011;2689;50.954;7.116;2022-12-07T06:36:39;30.90;;;20.33;;
5333;SDS011;2689;50.954;7.116;2022-12-07T06:39:06;31.20;;;21.43;;
5333;SDS011;2689;50.954;7.116;2022-12-07T06:41:34;30.40;;;20.50;;
5333;SDS011;2689;50.954;7.116;2022-12-07T06:44:02;34.83;;;22.00;;
5333;SDS011;2689;50.954;7.116;2022-12-07T06:46:29;30.87;;;21.30;;
5333;SDS011;2689;50.954;7.116;2022-12-07T06:48:57;22.90;;;16.57;;
5333;SDS011;2689;50.954;7.116;2022-12-07T06:51:24;26.33;;;16.87;;
5333;SDS011;2689;50.954;7.116;2022-12-07T06:53:51;30.73;;;19.57;;
5333;SDS011;2689;50.954;7.116;2022-12-07T06:56:18;24.70;;;16.63;;
5333;SDS011;2689;50.954;7.116;2022-12-07T06:58:45;31.20;;;18.27;;
5333;SDS011;2689;50.954;7.116;2022-12-07T07:01:12;23.37;;;18.53;;
5333;SDS011;2689;50.954;7.116;2022-12-07T07:03:40;19.63;;;13.50;;
5333;SDS011;2689;50.954;7.116;2022-12-07T07:06:09;28.73;;;18.63;;
5333;SDS011;2689;50.954;7.116;2022-12-07T07:08:37;21.67;;;14.77;;
5333;SDS011;2689;50.954;7.116;2022-12-07T07:11:05;27.60;;;19.97;;
5333;SDS011;2689;50.954;7.116;2022-12-07T07:13:33;34.00;;;20.57;;
5333;SDS011;2689;50.954;7.116;2022-12-07T07:16:01;25.27;;;18.80;;
5333;SDS011;2689;50.954;7.116;2022-12-07T07:18:28;27.63;;;18.60;;
5333;SDS011;2689;50.954;7.116;2022-12-07T07:20:55;26.10;;;19.13;;
5333;SDS011;2689;50.954;7.116;2022-12-07T07:23:24;29.13;;;19.50;;
5333;SDS011;2689;50.954;7.116;2022-12-07T07:25:57;26.30;;;20.60;;
5333;SDS011;2689;50.954;7.116;2022-12-07T07:28:23;28.17;;;19.80;;
5333;SDS011;2689;50.954;7.116;2022-12-07T07:30:50;28.27;;;19.17;;
5333;SDS011;2689;50.954;7.116;2022-12-07T07:33:17;25.83;;;18.20;;
5333;SDS011;2689;50.954;7.116;2022-12-07T07:35:44;26.63;;;20.67;;
5333;SDS011;2689;50.954;7.116;2022-12-07T07:38:11;25.73;;;18.80;;
5333;SDS011;2689;50.954;7.116;2022-12-07T07:40:41;27.47;;;19.30;;
5333;SDS011;2689;50.954;7.116;2022-12-07T07:43:10;30.20;;;19.60;;
5333;SDS011;2689;50.954;7.116;2022-12-07T07:45:37;21.77;;;14.70;;
5333;SDS011;2689;50.954;7.116;2022-12-07T07:48:05;25.80;;;18.93;;
5333;SDS011;2689;50.954;7.116;2022-12-07T07:50:32;25.93;;;19.20;;
5333;SDS011;2689;50.954;7.116;2022-12-07T07:52:59;37.93;;;22.70;;
5333;SDS011;2689;50.954;7.116;2022-12-07T07:55:26;33.67;;;23.83;;
5333;SDS011;2689;50.954;7.116;2022-12-07T07:57:55;49.33;;;24.83;;
5333;SDS011;2689;50.954;7.116;2022-12-07T08:00:22;30.20;;;21.37;;
5333;SDS011;2689;50.954;7.116;2022-12-07T08:02:49;32.67;;;20.40;;
5333;SDS011;2689;50.954;7.116;2022-12-07T08:05:16;33.23;;;21.70;;
5333;SDS011;2689;50.954;7.116;2022-12-07T08:07:43;31.40;;;21.83;;
5333;SDS011;2689;50.954;7.116;2022-12-07T08:10:11;45.03;;;26.37;;
5333;SDS011;2689;50.954;7.116;2022-12-07T08:12:42;32.03;;;23.40;;
5333;SDS011;2689;50.954;7.116;2022-12-07T08:15:32;27.43;;;20.40;;
5333;SDS011;2689;50.954;7.116;2022-12-07T08:18:02;31.83;;;21.80;;
5333;SDS011;2689;50.954;7.116;2022-12-07T08:20:30;32.20;;;22.03;;
5333;SDS011;2689;50.954;7.116;2022-12-07T08:22:59;29.03;;;20.50;;
5333;SDS011;2689;50.954;7.116;2022-12-07T08:25:29;29.43;;;22.30;;
5333;SDS011;2689;50.954;7.116;2022-12-07T08:27:56;36.93;;;24.20;;
5333;SDS011;2689;50.954;7.116;2022-12-07T08:30:22;28.63;;;19.00;;
5333;SDS011;2689;50.954;7.116;2022-12-07T08:32:51;28.10;;;20.60;;
5333;SDS011;2689;50.954;7.116;2022-12-07T08:35:18;32.93;;;22.87;;
5333;SDS011;2689;50.954;7.116;2022-12-07T08:37:45;33.30;;;22.37;;
5333;SDS011;2689;50.954;7.116;2022-12-07T08:40:12;38.27;;;22.90;;
5333;SDS011;2689;50.954;7.116;2022-12-07T08:42:41;31.23;;;21.17;;
5333;SDS011;2689;50.954;7.116;2022-12-07T08:45:10;29.40;;;23.30;;
5333;SDS011;2689;50.954;7.116;2022-12-07T08:47:38;25.57;;;20.67;;
5333;SDS011;2689;50.954;7.116;2022-12-07T08:50:11;27.43;;;19.90;;
5333;SDS011;2689;50.954;7.116;2022-12-07T08:52:38;35.50;;;22.30;;
5333;SDS011;2689;50.954;7.116;2022-12-07T08:55:07;25.53;;;20.87;;
5333;SDS011;2689;50.954;7.116;2022-12-07T08:57:36;34.93;;;21.57;;
5333;SDS011;2689;50.954;7.116;2022-12-07T09:00:03;27.20;;;20.90;;
5333;SDS011;2689;50.954;7.116;2022-12-07T09:02:31;26.33;;;19.83;;
5333;SDS011;2689;50.954;7.116;2022-12-07T09:04:58;26.07;;;18.87;;
5333;SDS011;2689;50.954;7.116;2022-12-07T09:07:27;25.50;;;20.20;;
5333;SDS011;2689;50.954;7.116;2022-12-07T09:09:54;25.97;;;17.57;;
5333;SDS011;2689;50.954;7.116;2022-12-07T09:12:21;25.77;;;19.50;;
5333;SDS011;2689;50.954;7.116;2022-12-07T09:14:47;24.40;;;18.50;;
5333;SDS011;2689;50.954;7.116;2022-12-07T09:17:14;24.47;;;17.80;;
5333;SDS011;2689;50.954;7.116;2022-12-07T09:19:41;21.47;;;17.07;;
5333;SDS011;2689;50.954;7.116;2022-12-07T09:22:08;35.03;;;19.00;;
5333;SDS011;2689;50.954;7.116;2022-12-07T09:24:37;23.03;;;15.30;;
5333;SDS011;2689;50.954;7.116;2022-12-07T09:27:11;18.03;;;10.17;;
5333;SDS011;2689;50.954;7.116;2022-12-07T09:29:38;24.20;;;18.20;;
5333;SDS011;2689;50.954;7.116;2022-12-07T09:32:04;23.03;;;16.87;;
5333;SDS011;2689;50.954;7.116;2022-12-07T09:34:31;27.90;;;18.23;;
5333;SDS011;2689;50.954;7.116;2022-12-07T09:37:00;24.40;;;17.40;;
5333;SDS011;2689;50.954;7.116;2022-12-07T09:39:29;23.13;;;17.80;;
5333;SDS011;2689;50.954;7.116;2022-12-07T09:41:57;30.20;;;18.37;;
5333;SDS011;2689;50.954;7.116;2022-12-07T09:44:28;22.30;;;15.60;;
5333;SDS011;2689;50.954;7.116;2022-12-07T09:46:55;18.87;;;16.13;;
5333;SDS011;2689;50.954;7.116;2022-12-07T09:49:23;25.87;;;17.00;;
5333;SDS011;2689;50.954;7.116;2022-12-07T09:52:00;24.27;;;17.27;;
5333;SDS011;2689;50.954;7.116;2022-12-07T09:54:45;16.17;;;11.07;;
5333;SDS011;2689;50.954;7.116;2022-12-07T09:57:16;21.80;;;14.80;;
5333;SDS011;2689;50.954;7.116;2022-12-07T09:59:43;20.43;;;14.53;;
5333;SDS011;2689;50.954;7.116;2022-12-07T10:02:19;25.30;;;15.87;;
5333;SDS011;2689;50.954;7.116;2022-12-07T10:04:50;28.30;;;17.40;;
5333;SDS011;2689;50.954;7.116;2022-12-07T10:07:17;20.00;;;15.27;;
5333;SDS011;2689;50.954;7.116;2022-12-07T10:09:45;19.50;;;15.57;;
5333;SDS011;2689;50.954;7.116;2022-12-07T10:12:12;25.17;;;17.17;;
5333;SDS011;2689;50.954;7.116;2022-12-07T10:14:40;18.47;;;14.80;;
5333;SDS011;2689;50.954;7.116;2022-12-07T10:17:34;17.87;;;14.63;;
5333;SDS011;2689;50.954;7.116;2022-12-07T10:20:14;19.40;;;13.20;;
5333;SDS011;2689;50.954;7.116;2022-12-07T10:22:53;16.37;;;12.03;;
5333;SDS011;2689;50.954;7.116;2022-12-07T10:25:22;19.77;;;12.40;;
5333;SDS011;2689;50.954;7.116;2022-12-07T10:28:12;17.80;;;10.57;;
5333;SDS011;2689;50.954;7.116;2022-12-07T10:30:49;9.67;;;4.77;;
5333;SDS011;2689;50.954;7.116;2022-12-07T10:33:29;15.10;;;10.47;;
5333;SDS011;2689;50.954;7.116;2022-12-07T10:35:58;12.90;;;9.33;;
5333;SDS011;2689;50.954;7.116;2022-12-07T10:38:26;14.67;;;10.20;;
5333;SDS011;2689;50.954;7.116;2022-12-07T10:41:04;19.47;;;10.83;;
5333;SDS011;2689;50.954;7.116;2022-12-07T10:43:32;18.13;;;10.70;;
5333;SDS011;2689;50.954;7.116;2022-12-07T10:46:07;16.40;;;11.37;;
5333;SDS011;2689;50.954;7.116;2022-12-07T10:48:49;18.33;;;10.53;;
5333;SDS011;2689;50.954;7.116;2022-12-07T10:51:25;14.57;;;9.83;;
5333;SDS011;2689;50.954;7.116;2022-12-07T10:54:00;17.07;;;10.40;;
5333;SDS011;2689;50.954;7.116;2022-12-07T10:56:41;20.73;;;10.53;;
5333;SDS011;2689;50.954;7.116;2022-12-07T11:02:31;15.03;;;10.40;;
5333;SDS011;2689;50.954;7.116;2022-12-07T11:05:11;18.50;;;9.73;;
5333;SDS011;2689;50.954;7.116;2022-12-07T11:07:47;14.40;;;6.17;;
5333;SDS011;2689;50.954;7.116;2022-12-07T11:10:25;15.40;;;8.90;;
5333;SDS011;2689;50.954;7.116;2022-12-07T11:13:11;18.57;;;9.80;;
5333;SDS011;2689;50.954;7.116;2022-12-07T11:15:55;12.67;;;9.27;;
5333;SDS011;2689;50.954;7.116;2022-12-07T11:18:34;15.93;;;9.17;;
5333;SDS011;2689;50.954;7.116;2022-12-07T11:21:09;14.90;;;8.90;;
5333;SDS011;2689;50.954;7.116;2022-12-07T11:23:46;14.40;;;7.47;;
5333;SDS011;2689;50.954;7.116;2022-12-07T11:26:22;13.93;;;7.37;;
5333;SDS011;2689;50.954;7.116;2022-12-07T11:29:09;15.13;;;9.83;;
5333;SDS011;2689;50.954;7.116;2022-12-07T11:32:00;15.00;;;8.67;;
5333;SDS011;2689;50.954;7.116;2022-12-07T11:34:51;14.57;;;8.70;;
5333;SDS011;2689;50.954;7.116;2022-12-07T11:37:33;23.30;;;10.03;;
5333;SDS011;2689;50.954;7.116;2022-12-07T11:40:03;12.27;;;9.33;;
5333;SDS011;2689;50.954;7.116;2022-12-07T11:42:33;17.23;;;10.20;;
5333;SDS011;2689;50.954;7.116;2022-12-07T11:45:10;19.27;;;10.10;;
5333;SDS011;2689;50.954;7.116;2022-12-07T11:47:44;17.67;;;11.23;;
5333;SDS011;2689;50.954;7.116;2022-12-07T11:50:20;10.90;;;6.57;;
5333;SDS011;2689;50.954;7.116;2022-12-07T11:52:53;16.77;;;9.67;;
5333;SDS011;2689;50.954;7.116;2022-12-07T11:55:38;17.27;;;9.23;;
5333;SDS011;2689;50.954;7.116;2022-12-07T11:58:56;18.97;;;8.63;;
5333;SDS011;2689;50.954;7.116;2022-12-07T12:01:53;13.17;;;8.47;;
5333;SDS011;2689;50.954;7.116;2022-12-07T12:04:50;13.50;;;8.27;;
5333;SDS011;2689;50.954;7.116;2022-12-07T12:07:34;18.20;;;9.80;;
5333;SDS011;2689;50.954;7.116;2022-12-07T12:20:31;20.83;;;10.97;;
5333;SDS011;2689;50.954;7.116;2022-12-07T12:26:18;5.70;;;3.70;;
5333;SDS011;2689;50.954;7.116;2022-12-07T12:28:57;13.27;;;6.73;;
5333;SDS011;2689;50.954;7.116;2022-12-07T12:31:34;15.70;;;8.13;;
5333;SDS011;2689;50.954;7.116;2022-12-07T12:34:10;15.93;;;9.23;;
5333;SDS011;2689;50.954;7.116;2022-12-07T12:36:58;20.40;;;12.40;;
5333;SDS011;2689;50.954;7.116;2022-12-07T12:39:25;24.03;;;8.47;;
5333;SDS011;2689;50.954;7.116;2022-12-07T12:41:57;12.50;;;9.20;;
5333;SDS011;2689;50.954;7.116;2022-12-07T12:44:41;11.93;;;6.80;;
5333;SDS011;2689;50.954;7.116;2022-12-07T12:50:26;11.67;;;7.10;;
5333;SDS011;2689;50.954;7.116;2022-12-07T12:52:58;13.27;;;8.07;;
5333;SDS011;2689;50.954;7.116;2022-12-07T13:02:09;15.57;;;8.63;;
5333;SDS011;2689;50.954;7.116;2022-12-07T13:04:48;11.10;;;7.50;;
5333;SDS011;2689;50.954;7.116;2022-12-07T13:13:42;16.70;;;9.10;;
5333;SDS011;2689;50.954;7.116;2022-12-07T13:22:40;14.63;;;10.03;;
5333;SDS011;2689;50.954;7.116;2022-12-07T13:25:25;13.00;;;9.17;;
5333;SDS011;2689;50.954;7.116;2022-12-07T13:28:09;15.90;;;9.43;;
5333;SDS011;2689;50.954;7.116;2022-12-07T13:30:43;15.27;;;8.60;;
5333;SDS011;2689;50.954;7.116;2022-12-07T13:33:13;16.60;;;8.70;;
5333;SDS011;2689;50.954;7.116;2022-12-07T13:35:43;20.37;;;9.63;;
5333;SDS011;2689;50.954;7.116;2022-12-07T13:38:25;16.70;;;5.20;;
5333;SDS011;2689;50.954;7.116;2022-12-07T13:41:10;15.93;;;9.73;;
5333;SDS011;2689;50.954;7.116;2022-12-07T13:43:45;17.20;;;6.93;;
5333;SDS011;2689;50.954;7.116;2022-12-07T13:46:35;11.73;;;7.27;;
5333;SDS011;2689;50.954;7.116;2022-12-07T13:49:25;16.07;;;9.87;;
5333;SDS011;2689;50.954;7.116;2022-12-07T13:52:07;14.47;;;7.90;;
5333;SDS011;2689;50.954;7.116;2022-12-07T13:54:45;15.60;;;7.37;;
5333;SDS011;2689;50.954;7.116;2022-12-07T13:57:19;14.33;;;8.17;;
5333;SDS011;2689;50.954;7.116;2022-12-07T13:59:55;11.60;;;7.60;;
5333;SDS011;2689;50.954;7.116;2022-12-07T14:02:25;14.00;;;8.80;;
5333;SDS011;2689;50.954;7.116;2022-12-07T14:05:05;11.87;;;8.43;;
5333;SDS011;2689;50.954;7.116;2022-12-07T14:07:48;15.20;;;8.30;;
5333;SDS011;2689;50.954;7.116;2022-12-07T14:13:35;17.90;;;10.17;;
5333;SDS011;2689;50.954;7.116;2022-12-07T14:22:55;14.30;;;7.67;;
